Time;durP1;ratioP1;P1;durP2;ratioP2;P2;SDS_P1;SDS_P2;PMS_P1;PMS_P2;Temp;Humidity;BMP_temperature;BMP_pressure;BME280_temperature;BME280_humidity;BME280_pressure;Samples;Min_cycle;Max_cycle;Signal;HPM_P1;HPM_P2
2024/04/08 00:01:59;;;;;;;4.87;2.70;;;;;;;;;;5089688;28;20881;-72
2024/04/08 00:04:27;;;;;;;3.50;2.37;;;;;;;;;;5091005;28;20487;-73
2024/04/08 00:06:53;;;;;;;7.50;2.60;;;;;;;;;;5091343;28;20461;-73
2024/04/08 00:09:20;;;;;;;3.37;2.60;;;;;;;;;;5090877;28;21022;-73
2024/04/08 00:11:46;;;;;;;5.87;2.83;;;;;;;;;;5091475;28;20457;-73
2024/04/08 00:14:13;;;;;;;7.53;3.20;;;;;;;;;;5098172;28;20446;-73
2024/04/08 00:16:41;;;;;;;2.50;2.30;;;;;;;;;;5092549;28;20461;-73
2024/04/08 00:19:08;;;;;;;3.43;2.67;;;;;;;;;;5092315;28;20450;-73
2024/04/08 00:21:34;;;;;;;4.50;2.83;;;;;;;;;;5092801;28;20530;-73
2024/04/08 00:24:01;;;;;;;5.23;2.30;;;;;;;;;;5092890;28;20453;-73
2024/04/08 00:26:27;;;;;;;5.30;3.03;;;;;;;;;;5092624;28;21036;-73
2024/04/08 00:28:54;;;;;;;4.87;3.37;;;;;;;;;;5092595;28;20913;-73
2024/04/08 00:31:20;;;;;;;6.03;2.90;;;;;;;;;;5092125;28;20448;-73
2024/04/08 00:33:49;;;;;;;4.17;3.03;;;;;;;;;;5092502;28;20514;-72
2024/04/08 00:36:15;;;;;;;4.40;2.73;;;;;;;;;;5092459;28;20548;-73
2024/04/08 00:38:42;;;;;;;7.50;4.00;;;;;;;;;;5092401;28;20445;-72
2024/04/08 00:41:08;;;;;;;11.90;3.20;;;;;;;;;;5092423;28;20536;-73
2024/04/08 00:43:35;;;;;;;4.87;3.30;;;;;;;;;;5092191;28;20446;-73
2024/04/08 00:46:02;;;;;;;5.30;3.30;;;;;;;;;;5092033;28;20462;-73
2024/04/08 00:48:29;;;;;;;5.13;2.80;;;;;;;;;;5092260;28;20478;-73
2024/04/08 00:50:56;;;;;;;3.87;2.90;;;;;;;;;;5092280;28;20634;-72
2024/04/08 00:53:24;;;;;;;7.67;5.50;;;;;;;;;;5091880;28;20478;-72
2024/04/08 00:55:51;;;;;;;8.43;3.67;;;;;;;;;;5091888;28;20464;-72
2024/04/08 00:58:19;;;;;;;3.47;3.17;;;;;;;;;;5091875;28;20476;-73
2024/04/08 01:00:45;;;;;;;5.40;4.83;;;;;;;;;;5091863;28;20831;-73
2024/04/08 01:03:12;;;;;;;5.00;2.90;;;;;;;;;;5091701;28;20475;-72
2024/04/08 01:05:38;;;;;;;9.10;2.93;;;;;;;;;;5091880;28;20616;-73
2024/04/08 01:08:08;;;;;;;5.10;3.67;;;;;;;;;;5091917;28;20460;-72
2024/04/08 01:10:34;;;;;;;5.20;3.27;;;;;;;;;;5091232;28;20992;-73
2024/04/08 01:13:01;;;;;;;5.40;3.83;;;;;;;;;;5097298;28;20444;-73
2024/04/08 01:15:28;;;;;;;6.47;3.20;;;;;;;;;;5091956;28;20565;-73
2024/04/08 01:17:56;;;;;;;4.30;2.83;;;;;;;;;;5092018;28;20473;-72
2024/04/08 01:20:22;;;;;;;3.57;3.30;;;;;;;;;;5091439;28;20448;-73
2024/04/08 01:22:50;;;;;;;4.70;2.80;;;;;;;;;;5091421;28;20439;-72
2024/04/08 01:25:17;;;;;;;3.43;3.13;;;;;;;;;;5091297;28;20460;-72
2024/04/08 01:27:44;;;;;;;3.03;2.83;;;;;;;;;;5091386;28;20554;-72
2024/04/08 01:30:11;;;;;;;6.00;3.27;;;;;;;;;;5091327;28;20481;-73
2024/04/08 01:32:38;;;;;;;6.30;3.13;;;;;;;;;;5091031;28;20445;-72
2024/04/08 01:35:05;;;;;;;4.27;2.73;;;;;;;;;;5091189;28;21039;-72
2024/04/08 01:37:32;;;;;;;3.93;2.97;;;;;;;;;;5091158;28;20542;-72
2024/04/08 01:39:58;;;;;;;4.50;3.40;;;;;;;;;;5091323;28;20450;-73
2024/04/08 01:42:26;;;;;;;3.10;2.90;;;;;;;;;;5090882;28;20542;-72
2024/04/08 01:44:53;;;;;;;8.33;3.30;;;;;;;;;;5091405;28;20521;-72
2024/04/08 01:47:20;;;;;;;4.73;3.17;;;;;;;;;;5091207;28;20473;-72
2024/04/08 01:49:46;;;;;;;2.83;2.43;;;;;;;;;;5091023;28;20536;-73
2024/04/08 01:52:13;;;;;;;5.30;3.20;;;;;;;;;;5090843;28;20460;-72
2024/04/08 01:54:39;;;;;;;6.70;2.77;;;;;;;;;;5090988;28;20536;-72
2024/04/08 01:57:07;;;;;;;3.37;3.07;;;;;;;;;;5090938;28;20469;-73
2024/04/08 01:59:34;;;;;;;3.60;2.77;;;;;;;;;;5083098;28;20591;-72
2024/04/08 02:02:01;;;;;;;4.13;3.73;;;;;;;;;;5090990;28;21006;-72
2024/04/08 02:04:27;;;;;;;3.90;3.20;;;;;;;;;;5090811;28;20456;-73
2024/04/08 02:06:55;;;;;;;3.20;2.87;;;;;;;;;;5091004;28;20524;-72
2024/04/08 02:09:21;;;;;;;7.23;3.47;;;;;;;;;;5090716;28;20485;-73
2024/04/08 02:11:48;;;;;;;2.83;2.53;;;;;;;;;;5090606;28;20967;-73
2024/04/08 02:14:14;;;;;;;4.80;3.20;;;;;;;;;;5098147;28;20447;-72
2024/04/08 02:16:42;;;;;;;6.43;3.17;;;;;;;;;;5090843;28;20454;-72
2024/04/08 02:19:09;;;;;;;3.33;3.00;;;;;;;;;;5090588;28;20516;-73
2024/04/08 02:21:36;;;;;;;6.60;3.50;;;;;;;;;;5090286;28;20807;-72
2024/04/08 02:24:02;;;;;;;3.40;3.10;;;;;;;;;;5090200;28;20453;-73
2024/04/08 02:26:30;;;;;;;7.30;3.13;;;;;;;;;;5090608;28;20499;-72
2024/04/08 02:28:58;;;;;;;2.90;2.70;;;;;;;;;;5090722;28;20890;-73
2024/04/08 02:31:25;;;;;;;7.77;3.17;;;;;;;;;;5090341;28;20437;-73
2024/04/08 02:33:53;;;;;;;2.90;2.70;;;;;;;;;;5090418;28;21018;-72
2024/04/08 02:36:20;;;;;;;3.00;2.80;;;;;;;;;;5090251;28;20471;-72
2024/04/08 02:38:46;;;;;;;5.37;3.40;;;;;;;;;;5090748;28;20530;-72
2024/04/08 02:41:13;;;;;;;3.10;2.80;;;;;;;;;;5090497;28;20443;-72
2024/04/08 02:43:39;;;;;;;3.37;2.70;;;;;;;;;;5090403;28;20454;-72
2024/04/08 02:46:06;;;;;;;5.83;3.03;;;;;;;;;;5090358;28;20470;-73
2024/04/08 02:48:33;;;;;;;4.23;3.83;;;;;;;;;;5090337;28;20574;-72
2024/04/08 02:51:01;;;;;;;5.30;3.40;;;;;;;;;;5090197;28;20501;-72
2024/04/08 02:53:27;;;;;;;6.90;3.20;;;;;;;;;;5090303;28;20451;-72
2024/04/08 02:56:00;;;;;;;2.43;2.20;;;;;;;;;;5090243;28;20987;-72
2024/04/08 02:58:26;;;;;;;7.00;4.70;;;;;;;;;;5087242;28;20460;-72
2024/04/08 03:00:54;;;;;;;3.50;3.20;;;;;;;;;;5090263;28;20463;-72
2024/04/08 03:03:20;;;;;;;5.30;2.97;;;;;;;;;;5089787;28;20507;-72
2024/04/08 03:05:47;;;;;;;3.13;2.73;;;;;;;;;;5090355;28;20463;-73
2024/04/08 03:08:14;;;;;;;4.03;2.77;;;;;;;;;;5090285;28;20838;-72
2024/04/08 03:10:41;;;;;;;4.53;2.80;;;;;;;;;;5090138;28;20450;-72
2024/04/08 03:13:08;;;;;;;3.67;3.37;;;;;;;;;;5097289;28;20437;-72
2024/04/08 03:15:35;;;;;;;7.40;3.40;;;;;;;;;;5090138;28;20893;-72
2024/04/08 03:18:02;;;;;;;5.27;3.33;;;;;;;;;;5089900;28;20434;-72
2024/04/08 03:20:30;;;;;;;4.53;3.63;;;;;;;;;;5083101;28;20439;-72
2024/04/08 03:22:56;;;;;;;3.00;2.80;;;;;;;;;;5070051;28;21043;-72
2024/04/08 03:25:25;;;;;;;3.80;2.53;;;;;;;;;;5069335;28;20971;-73
2024/04/08 03:27:52;;;;;;;4.20;3.40;;;;;;;;;;5069970;28;20935;-72
2024/04/08 03:30:19;;;;;;;6.27;3.70;;;;;;;;;;5069044;28;20486;-72
2024/04/08 03:32:45;;;;;;;4.87;3.27;;;;;;;;;;5069778;28;20447;-72
2024/04/08 03:35:12;;;;;;;3.20;2.90;;;;;;;;;;5072099;28;20446;-72
2024/04/08 03:37:39;;;;;;;3.53;3.23;;;;;;;;;;5073602;28;20444;-73
2024/04/08 03:40:07;;;;;;;5.63;3.10;;;;;;;;;;5073942;28;20829;-72
2024/04/08 03:42:36;;;;;;;3.80;3.50;;;;;;;;;;5073614;28;20459;-72
2024/04/08 03:45:02;;;;;;;3.57;3.27;;;;;;;;;;5073574;28;20453;-72
2024/04/08 03:47:30;;;;;;;3.37;3.13;;;;;;;;;;5073574;28;20467;-73
2024/04/08 03:49:56;;;;;;;5.53;3.07;;;;;;;;;;5073394;28;20493;-72
2024/04/08 03:52:23;;;;;;;4.70;3.40;;;;;;;;;;5073641;28;20868;-72
2024/04/08 03:54:49;;;;;;;6.60;2.80;;;;;;;;;;5073740;28;20479;-72
2024/04/08 03:57:16;;;;;;;2.77;2.57;;;;;;;;;;5073163;28;20522;-72
2024/04/08 03:59:45;;;;;;;2.73;2.60;;;;;;;;;;5078099;28;20441;-72
2024/04/08 04:02:12;;;;;;;4.23;2.97;;;;;;;;;;5093106;28;21029;-72
2024/04/08 04:04:38;;;;;;;3.80;2.83;;;;;;;;;;5093540;28;20445;-72
2024/04/08 04:07:06;;;;;;;5.30;3.00;;;;;;;;;;5093314;28;20520;-72
2024/04/08 04:09:33;;;;;;;3.13;2.80;;;;;;;;;;5093228;28;20488;-72
2024/04/08 04:11:59;;;;;;;7.93;4.53;;;;;;;;;;5093356;28;20572;-73
2024/04/08 04:14:26;;;;;;;6.00;3.30;;;;;;;;;;5093353;28;20453;-73
2024/04/08 04:16:54;;;;;;;3.07;2.77;;;;;;;;;;5093191;28;20557;-72
2024/04/08 04:19:21;;;;;;;7.50;3.83;;;;;;;;;;5093362;28;20824;-72
2024/04/08 04:21:47;;;;;;;3.87;2.60;;;;;;;;;;5092853;28;20443;-72
2024/04/08 04:24:14;;;;;;;8.00;3.50;;;;;;;;;;5092865;28;20817;-72
2024/04/08 04:28:18;;;;;;;5.17;3.03;;;;;;;;;;5580173;25;20665;-71
2024/04/08 04:30:52;;;;;;;4.80;3.67;;;;;;;;;;5579956;25;20464;-71
2024/04/08 04:33:20;;;;;;;3.40;3.10;;;;;;;;;;5579891;25;20473;-71
2024/04/08 04:35:51;;;;;;;4.00;3.70;;;;;;;;;;5571443;25;20535;-71
2024/04/08 04:38:20;;;;;;;4.03;3.30;;;;;;;;;;5542385;25;20469;-71
2024/04/08 04:40:46;;;;;;;3.40;2.60;;;;;;;;;;5542173;25;20860;-71
2024/04/08 04:43:15;;;;;;;4.80;2.93;;;;;;;;;;5542054;25;20479;-71
2024/04/08 04:45:44;;;;;;;4.80;2.90;;;;;;;;;;5542064;25;20526;-71
2024/04/08 04:48:10;;;;;;;7.13;5.17;;;;;;;;;;5542067;25;20464;-71
2024/04/08 04:50:39;;;;;;;5.97;3.43;;;;;;;;;;5542021;25;20520;-71
2024/04/08 04:53:05;;;;;;;6.10;3.57;;;;;;;;;;5541861;25;20452;-71
2024/04/08 04:55:34;;;;;;;10.07;3.80;;;;;;;;;;5542002;25;20555;-71
2024/04/08 04:58:00;;;;;;;4.30;3.00;;;;;;;;;;5542102;25;20466;-71
2024/04/08 05:00:31;;;;;;;5.83;2.97;;;;;;;;;;5541697;25;20577;-71
2024/04/08 05:03:00;;;;;;;4.43;3.30;;;;;;;;;;5541556;25;20462;-71
2024/04/08 05:05:29;;;;;;;5.10;3.77;;;;;;;;;;5541987;25;20510;-71
2024/04/08 05:07:55;;;;;;;5.27;2.70;;;;;;;;;;5541670;25;20456;-71
2024/04/08 05:10:24;;;;;;;3.70;2.87;;;;;;;;;;5541744;25;20925;-71
2024/04/08 05:12:50;;;;;;;4.07;3.30;;;;;;;;;;5541397;25;20516;-71
2024/04/08 05:15:19;;;;;;;4.77;3.37;;;;;;;;;;5541862;25;20472;-71
2024/04/08 05:17:45;;;;;;;4.70;2.53;;;;;;;;;;5541774;25;20518;-71
2024/04/08 05:20:16;;;;;;;11.17;3.60;;;;;;;;;;5542052;25;20469;-71
2024/04/08 05:22:46;;;;;;;3.43;3.13;;;;;;;;;;5541568;25;20845;-71
2024/04/08 05:25:16;;;;;;;4.57;3.10;;;;;;;;;;5541672;25;20620;-74
2024/04/08 05:27:43;;;;;;;10.80;3.87;;;;;;;;;;5541730;25;20506;-73
2024/04/08 05:30:12;;;;;;;5.60;3.10;;;;;;;;;;5541581;25;20847;-74
2024/04/08 05:32:38;;;;;;;11.60;3.53;;;;;;;;;;5541362;25;20463;-74
2024/04/08 05:35:07;;;;;;;4.40;4.07;;;;;;;;;;5541821;25;20521;-73
2024/04/08 05:37:38;;;;;;;4.80;3.17;;;;;;;;;;5537987;25;20479;-73
2024/04/08 05:40:09;;;;;;;8.17;3.80;;;;;;;;;;5525824;26;20456;-74
2024/04/08 05:42:35;;;;;;;3.10;2.70;;;;;;;;;;5525368;26;20462;-73
2024/04/08 05:45:05;;;;;;;6.83;3.57;;;;;;;;;;5525807;25;20458;-73
2024/04/08 05:47:32;;;;;;;8.17;3.90;;;;;;;;;;5525338;25;20528;-73
2024/04/08 05:50:00;;;;;;;7.63;4.00;;;;;;;;;;5525746;26;21004;-73
2024/04/08 05:52:27;;;;;;;6.13;3.97;;;;;;;;;;5525148;26;20524;-73
2024/04/08 05:54:58;;;;;;;7.50;3.13;;;;;;;;;;5525490;26;20535;-73
2024/04/08 05:57:25;;;;;;;3.83;3.53;;;;;;;;;;5525854;25;20534;-73
2024/04/08 05:59:54;;;;;;;10.57;5.63;;;;;;;;;;5525355;26;20475;-73
2024/04/08 06:02:20;;;;;;;4.93;4.30;;;;;;;;;;5524760;26;21057;-73
2024/04/08 06:04:49;;;;;;;6.70;4.20;;;;;;;;;;5525200;26;20578;-73
2024/04/08 06:07:15;;;;;;;7.30;3.87;;;;;;;;;;5525057;25;20821;-73
2024/04/08 06:09:44;;;;;;;6.70;3.70;;;;;;;;;;5525681;25;20460;-73
2024/04/08 06:12:13;;;;;;;6.43;5.13;;;;;;;;;;5524752;26;20467;-73
2024/04/08 06:14:42;;;;;;;6.07;3.80;;;;;;;;;;5525129;25;20476;-73
2024/04/08 06:17:08;;;;;;;4.43;3.07;;;;;;;;;;5490064;26;21010;-74
2024/04/08 06:19:37;;;;;;;4.93;3.13;;;;;;;;;;5487986;26;20465;-74
2024/04/08 06:22:03;;;;;;;6.40;3.50;;;;;;;;;;5487586;26;20810;-73
2024/04/08 06:24:32;;;;;;;3.83;3.10;;;;;;;;;;5487924;26;20518;-73
2024/04/08 06:26:58;;;;;;;4.83;3.87;;;;;;;;;;5487855;26;20472;-73
2024/04/08 06:29:30;;;;;;;5.47;3.90;;;;;;;;;;5488045;26;20473;-73
2024/04/08 06:31:56;;;;;;;4.93;4.00;;;;;;;;;;5487728;26;20811;-73
2024/04/08 06:34:25;;;;;;;4.00;3.70;;;;;;;;;;5488254;26;20585;-73
2024/04/08 06:36:51;;;;;;;4.47;4.07;;;;;;;;;;5487716;26;20481;-74
2024/04/08 06:39:20;;;;;;;8.30;3.90;;;;;;;;;;5488101;26;20555;-74
2024/04/08 06:41:46;;;;;;;4.67;3.40;;;;;;;;;;5487207;26;20464;-73
2024/04/08 06:44:15;;;;;;;7.70;3.07;;;;;;;;;;5487711;26;20993;-74
2024/04/08 06:46:44;;;;;;;4.90;4.43;;;;;;;;;;5487352;26;20822;-74
2024/04/08 06:49:12;;;;;;;5.17;3.50;;;;;;;;;;5487119;26;21112;-73
2024/04/08 06:51:39;;;;;;;8.67;3.73;;;;;;;;;;5505605;25;20524;-74
2024/04/08 06:54:08;;;;;;;7.23;4.87;;;;;;;;;;5523599;26;20479;-74
2024/04/08 06:56:34;;;;;;;6.90;3.33;;;;;;;;;;5523416;25;22431;-73
2024/04/08 06:59:02;;;;;;;13.10;5.80;;;;;;;;;;5523577;26;20476;-73
2024/04/08 07:01:30;;;;;;;6.03;4.30;;;;;;;;;;5523277;26;20472;-74
2024/04/08 07:04:01;;;;;;;4.93;3.10;;;;;;;;;;5523338;25;20530;-73
2024/04/08 07:06:27;;;;;;;6.43;4.23;;;;;;;;;;5527505;25;20528;-74
2024/04/08 07:08:56;;;;;;;4.37;3.53;;;;;;;;;;5510611;26;20474;-73
2024/04/08 07:11:22;;;;;;;7.00;4.53;;;;;;;;;;5514225;25;20519;-73
2024/04/08 07:13:51;;;;;;;9.33;6.33;;;;;;;;;;5523391;25;21125;-73
2024/04/08 07:16:17;;;;;;;6.70;4.80;;;;;;;;;;5523209;25;20537;-73
2024/04/08 07:18:46;;;;;;;7.30;4.07;;;;;;;;;;5523281;25;20922;-73
2024/04/08 07:21:15;;;;;;;8.10;4.70;;;;;;;;;;5522891;26;20465;-73
2024/04/08 07:23:44;;;;;;;8.80;4.97;;;;;;;;;;5522822;25;20521;-73
2024/04/08 07:26:11;;;;;;;6.27;4.53;;;;;;;;;;5522926;25;20468;-73
2024/04/08 07:28:40;;;;;;;6.07;3.83;;;;;;;;;;5522966;25;20473;-73
2024/04/08 07:31:06;;;;;;;8.43;4.13;;;;;;;;;;5514408;26;21080;-74
2024/04/08 07:33:35;;;;;;;10.07;4.90;;;;;;;;;;5521803;25;20531;-73
2024/04/08 07:36:01;;;;;;;10.40;6.00;;;;;;;;;;5502226;26;20478;-73
2024/04/08 07:38:32;;;;;;;6.13;3.80;;;;;;;;;;5523220;25;20477;-73
2024/04/08 07:40:59;;;;;;;11.10;4.43;;;;;;;;;;5523174;25;20465;-73
2024/04/08 07:43:30;;;;;;;8.37;4.23;;;;;;;;;;5522428;25;20471;-73
2024/04/08 07:45:56;;;;;;;9.57;5.37;;;;;;;;;;5522656;25;20481;-73
2024/04/08 07:48:25;;;;;;;6.60;5.17;;;;;;;;;;5522937;25;20468;-73
2024/04/08 07:50:52;;;;;;;7.33;4.10;;;;;;;;;;5523092;26;20827;-74
2024/04/08 07:53:20;;;;;;;12.80;4.47;;;;;;;;;;5522763;26;21329;-71
2024/04/08 07:55:49;;;;;;;4.77;4.10;;;;;;;;;;5523248;25;20825;-71
2024/04/08 07:58:18;;;;;;;9.10;5.00;;;;;;;;;;5523542;26;21130;-71
2024/04/08 08:00:45;;;;;;;5.13;4.57;;;;;;;;;;5522780;26;20487;-71
2024/04/08 08:03:14;;;;;;;12.60;4.13;;;;;;;;;;5523374;26;20519;-71
2024/04/08 08:05:42;;;;;;;7.73;3.60;;;;;;;;;;5523344;25;21125;-71
2024/04/08 08:08:11;;;;;;;9.80;3.53;;;;;;;;;;5523218;25;20522;-71
2024/04/08 08:10:40;;;;;;;20.63;4.83;;;;;;;;;;5523556;25;20510;-71
2024/04/08 08:13:11;;;;;;;4.00;3.03;;;;;;;;;;5522601;26;20474;-71
2024/04/08 08:15:40;;;;;;;6.73;4.70;;;;;;;;;;5519114;25;20999;-72
2024/04/08 08:18:09;;;;;;;12.00;5.83;;;;;;;;;;5522418;26;21166;-72
2024/04/08 08:20:38;;;;;;;5.70;4.30;;;;;;;;;;5522447;25;20529;-72
2024/04/08 08:23:07;;;;;;;8.80;4.00;;;;;;;;;;5521891;25;20464;-71
2024/04/08 08:25:36;;;;;;;15.97;4.33;;;;;;;;;;5519918;25;21179;-71
2024/04/08 08:28:06;;;;;;;8.40;4.30;;;;;;;;;;5521206;26;20539;-72
2024/04/08 08:30:41;;;;;;;8.30;4.10;;;;;;;;;;5521976;25;21158;-72
2024/04/08 08:33:09;;;;;;;7.13;2.93;;;;;;;;;;5522320;26;20453;-71
2024/04/08 08:35:38;;;;;;;4.77;3.87;;;;;;;;;;5522167;25;20468;-71
2024/04/08 08:38:04;;;;;;;11.53;4.00;;;;;;;;;;5522495;26;20456;-71
2024/04/08 08:40:34;;;;;;;7.80;4.00;;;;;;;;;;5521577;25;20516;-71
2024/04/08 08:43:00;;;;;;;6.33;3.63;;;;;;;;;;5516037;25;20464;-71
2024/04/08 08:45:30;;;;;;;5.27;4.03;;;;;;;;;;5521394;25;20476;-72
2024/04/08 08:47:59;;;;;;;7.03;3.27;;;;;;;;;;5517476;25;20473;-71
2024/04/08 08:50:29;;;;;;;5.43;3.60;;;;;;;;;;5522311;26;20509;-71
2024/04/08 08:52:55;;;;;;;6.83;4.40;;;;;;;;;;5520137;26;20521;-71
2024/04/08 08:55:25;;;;;;;4.80;2.90;;;;;;;;;;5518460;25;20613;-71
2024/04/08 08:57:54;;;;;;;8.97;4.93;;;;;;;;;;5522353;25;20831;-71
2024/04/08 09:00:23;;;;;;;7.23;3.60;;;;;;;;;;5521384;25;21037;-72
2024/04/08 09:02:52;;;;;;;5.93;3.33;;;;;;;;;;5521490;26;20582;-71
2024/04/08 09:05:20;;;;;;;9.83;4.30;;;;;;;;;;5521762;25;20525;-72
2024/04/08 09:07:49;;;;;;;7.77;3.83;;;;;;;;;;5521850;26;20618;-72
2024/04/08 09:10:15;;;;;;;6.60;4.30;;;;;;;;;;5520786;25;20469;-71
2024/04/08 09:12:45;;;;;;;7.10;4.13;;;;;;;;;;5518459;25;20478;-72
2024/04/08 09:15:12;;;;;;;7.57;4.13;;;;;;;;;;5505875;26;20645;-71
2024/04/08 09:17:41;;;;;;;7.70;3.33;;;;;;;;;;5524281;26;20590;-71
2024/04/08 09:20:08;;;;;;;7.83;3.60;;;;;;;;;;5536799;25;20456;-71
2024/04/08 09:22:39;;;;;;;7.17;3.40;;;;;;;;;;5552714;25;21141;-72
2024/04/08 09:25:12;;;;;;;6.33;3.37;;;;;;;;;;5524730;26;20524;-72
2024/04/08 09:27:41;;;;;;;8.13;4.67;;;;;;;;;;5514322;25;20530;-72
2024/04/08 09:30:07;;;;;;;9.10;3.50;;;;;;;;;;5524845;26;20545;-71
2024/04/08 09:32:36;;;;;;;7.27;4.33;;;;;;;;;;5524499;26;20526;-72
2024/04/08 09:35:03;;;;;;;9.00;3.90;;;;;;;;;;5524643;25;20518;-72
2024/04/08 09:37:33;;;;;;;3.30;2.70;;;;;;;;;;5524546;25;20479;-71
2024/04/08 09:40:03;;;;;;;9.33;4.33;;;;;;;;;;5541511;25;20482;-72
2024/04/08 09:42:33;;;;;;;7.33;3.03;;;;;;;;;;5511769;25;20479;-72
2024/04/08 09:45:00;;;;;;;8.73;3.30;;;;;;;;;;5540540;25;20466;-71
2024/04/08 09:47:29;;;;;;;6.17;3.10;;;;;;;;;;5528498;25;20983;-72
2024/04/08 09:49:56;;;;;;;9.17;4.67;;;;;;;;;;5512893;25;20556;-72
2024/04/08 09:52:26;;;;;;;13.43;4.40;;;;;;;;;;5513737;25;20484;-72
2024/04/08 09:54:54;;;;;;;10.83;4.30;;;;;;;;;;5535654;25;20476;-71
2024/04/08 09:57:27;;;;;;;12.63;3.70;;;;;;;;;;5525744;25;21095;-72
2024/04/08 09:59:56;;;;;;;4.03;2.90;;;;;;;;;;5523067;25;20532;-71
2024/04/08 10:02:28;;;;;;;9.90;4.10;;;;;;;;;;5523814;25;20475;-72
2024/04/08 10:04:56;;;;;;;4.93;3.23;;;;;;;;;;5534618;25;20514;-71
2024/04/08 10:07:25;;;;;;;8.33;3.50;;;;;;;;;;5538898;25;20475;-72
2024/04/08 10:09:52;;;;;;;9.10;4.23;;;;;;;;;;5536191;25;20467;-72
2024/04/08 10:12:20;;;;;;;6.10;3.30;;;;;;;;;;5524148;26;20823;-72
2024/04/08 10:14:49;;;;;;;5.00;3.10;;;;;;;;;;5517272;25;20816;-72
2024/04/08 10:17:18;;;;;;;4.27;2.83;;;;;;;;;;5523702;25;20487;-72
2024/04/08 10:19:45;;;;;;;13.00;4.03;;;;;;;;;;5524199;26;20521;-72
2024/04/08 10:22:17;;;;;;;5.33;2.77;;;;;;;;;;5524152;26;20461;-72
2024/04/08 10:24:43;;;;;;;7.63;4.13;;;;;;;;;;5523796;26;21109;-72
2024/04/08 10:27:13;;;;;;;10.07;3.53;;;;;;;;;;5523793;25;20586;-72
2024/04/08 10:29:40;;;;;;;7.43;3.30;;;;;;;;;;5538334;25;20482;-72
2024/04/08 10:32:13;;;;;;;9.17;4.53;;;;;;;;;;5533577;25;20588;-72
2024/04/08 10:34:41;;;;;;;8.20;3.30;;;;;;;;;;5522895;26;20579;-72
2024/04/08 10:37:10;;;;;;;7.37;3.87;;;;;;;;;;5523550;25;20465;-72
2024/04/08 10:39:36;;;;;;;4.63;4.17;;;;;;;;;;5528558;25;20580;-72
2024/04/08 10:42:14;;;;;;;6.90;2.90;;;;;;;;;;5546999;25;20484;-72
2024/04/08 10:44:40;;;;;;;7.13;3.10;;;;;;;;;;5539257;25;20857;-72
2024/04/08 10:47:10;;;;;;;5.90;3.57;;;;;;;;;;5523101;25;20461;-72
2024/04/08 10:49:40;;;;;;;12.63;2.93;;;;;;;;;;5514686;25;21012;-71
2024/04/08 10:52:09;;;;;;;6.90;4.93;;;;;;;;;;5549639;25;20523;-72
2024/04/08 10:54:36;;;;;;;5.90;2.50;;;;;;;;;;5538642;25;20469;-72
2024/04/08 10:57:05;;;;;;;8.83;3.57;;;;;;;;;;5508228;25;20530;-71
2024/04/08 10:59:31;;;;;;;9.63;3.90;;;;;;;;;;5541760;25;20461;-72
2024/04/08 11:02:00;;;;;;;5.93;2.90;;;;;;;;;;5527638;25;20512;-72
2024/04/08 11:04:27;;;;;;;4.60;2.80;;;;;;;;;;5524168;25;20514;-72
2024/04/08 11:06:59;;;;;;;8.53;3.33;;;;;;;;;;5541542;25;20587;-72
2024/04/08 11:09:26;;;;;;;9.80;4.30;;;;;;;;;;5544521;25;20836;-72
2024/04/08 11:11:55;;;;;;;7.67;4.00;;;;;;;;;;5536834;25;20467;-71
2024/04/08 11:14:21;;;;;;;7.00;4.50;;;;;;;;;;5522812;25;20520;-71
2024/04/08 11:16:50;;;;;;;6.67;3.77;;;;;;;;;;5536985;25;20476;-71
2024/04/08 11:19:17;;;;;;;5.27;3.90;;;;;;;;;;5515536;25;20479;-71
2024/04/08 11:21:47;;;;;;;8.27;3.30;;;;;;;;;;5511974;26;20468;-71
2024/04/08 11:24:16;;;;;;;9.23;2.93;;;;;;;;;;5523009;25;20606;-72
2024/04/08 11:26:45;;;;;;;12.73;4.07;;;;;;;;;;5522835;25;20483;-71
2024/04/08 11:29:11;;;;;;;4.60;3.10;;;;;;;;;;5523086;25;20466;-72
2024/04/08 11:31:40;;;;;;;5.43;3.13;;;;;;;;;;5508676;25;20472;-72
2024/04/08 11:34:07;;;;;;;8.00;3.30;;;;;;;;;;5522964;26;20515;-72
2024/04/08 11:36:35;;;;;;;8.60;3.27;;;;;;;;;;5521867;25;20474;-72
2024/04/08 11:39:03;;;;;;;9.77;3.50;;;;;;;;;;5522670;26;20464;-72
2024/04/08 11:41:34;;;;;;;7.20;3.27;;;;;;;;;;5538479;25;20464;-72
2024/04/08 11:44:00;;;;;;;7.67;3.77;;;;;;;;;;5514952;25;20527;-72
2024/04/08 11:46:29;;;;;;;8.27;3.50;;;;;;;;;;5508266;25;21046;-72
2024/04/08 11:48:55;;;;;;;9.40;3.33;;;;;;;;;;5516993;25;20515;-72
2024/04/08 11:51:24;;;;;;;6.30;3.03;;;;;;;;;;5537300;25;20526;-72
2024/04/08 11:53:50;;;;;;;6.67;3.00;;;;;;;;;;5518273;25;20499;-72
2024/04/08 11:56:19;;;;;;;7.07;3.80;;;;;;;;;;5526586;25;20476;-72
2024/04/08 11:58:50;;;;;;;8.60;3.37;;;;;;;;;;5553599;25;20457;-72
2024/04/08 12:01:19;;;;;;;5.97;3.47;;;;;;;;;;5519249;25;20871;-72
2024/04/08 12:03:45;;;;;;;7.67;2.87;;;;;;;;;;5530232;25;20525;-72
2024/04/08 12:06:15;;;;;;;5.83;3.40;;;;;;;;;;5521846;25;20488;-71
2024/04/08 12:08:41;;;;;;;8.10;3.20;;;;;;;;;;5521030;26;20517;-72
2024/04/08 12:11:13;;;;;;;6.23;3.03;;;;;;;;;;5522932;25;20519;-72
2024/04/08 12:13:39;;;;;;;9.97;3.57;;;;;;;;;;5522796;25;20445;-72
2024/04/08 12:16:11;;;;;;;10.57;3.40;;;;;;;;;;5504426;26;20470;-72
2024/04/08 12:18:37;;;;;;;11.60;3.00;;;;;;;;;;5500978;26;20576;-72
2024/04/08 12:21:06;;;;;;;6.83;4.00;;;;;;;;;;5517409;26;20461;-72
2024/04/08 12:23:32;;;;;;;5.80;3.53;;;;;;;;;;5495188;25;20865;-72
2024/04/08 12:26:02;;;;;;;5.67;3.23;;;;;;;;;;5517810;25;20540;-72
2024/04/08 12:28:28;;;;;;;11.50;4.57;;;;;;;;;;5522191;25;20536;-73
2024/04/08 12:30:56;;;;;;;8.77;2.83;;;;;;;;;;5521472;26;20590;-72
2024/04/08 12:33:25;;;;;;;9.87;3.23;;;;;;;;;;5512187;26;20469;-72
2024/04/08 12:35:54;;;;;;;10.10;4.00;;;;;;;;;;5512782;25;20492;-72
2024/04/08 12:38:20;;;;;;;6.57;3.00;;;;;;;;;;5518362;26;20472;-72
2024/04/08 12:40:49;;;;;;;7.17;2.63;;;;;;;;;;5509052;25;20481;-72
2024/04/08 12:43:15;;;;;;;6.40;2.87;;;;;;;;;;5509223;25;20475;-72
2024/04/08 12:45:44;;;;;;;8.20;3.67;;;;;;;;;;5505126;25;20480;-72
2024/04/08 12:48:11;;;;;;;10.77;3.57;;;;;;;;;;5515300;25;20460;-72
2024/04/08 12:50:43;;;;;;;8.50;3.50;;;;;;;;;;5515504;25;20562;-71
2024/04/08 12:53:09;;;;;;;9.30;3.60;;;;;;;;;;5538363;25;20519;-72
2024/04/08 12:55:38;;;;;;;6.87;3.00;;;;;;;;;;5529581;25;21115;-72
2024/04/08 12:58:05;;;;;;;8.87;3.70;;;;;;;;;;5523618;25;20943;-72
2024/04/08 13:00:34;;;;;;;9.87;4.57;;;;;;;;;;5526103;25;20468;-72
2024/04/08 13:03:00;;;;;;;9.30;3.90;;;;;;;;;;5552155;25;20467;-72
2024/04/08 13:05:29;;;;;;;5.67;2.60;;;;;;;;;;5513022;25;20470;-71
2024/04/08 13:07:57;;;;;;;7.10;3.37;;;;;;;;;;5503171;25;20470;-72
2024/04/08 13:10:26;;;;;;;10.87;3.33;;;;;;;;;;5519802;25;20884;-72
2024/04/08 13:12:55;;;;;;;6.53;3.03;;;;;;;;;;5532925;25;20945;-72
2024/04/08 13:15:21;;;;;;;10.37;2.93;;;;;;;;;;5534842;25;20471;-71
2024/04/08 13:17:50;;;;;;;4.13;2.73;;;;;;;;;;5530072;25;21025;-72
2024/04/08 13:20:19;;;;;;;13.77;5.80;;;;;;;;;;5522269;25;20520;-71
2024/04/08 13:22:48;;;;;;;12.10;3.90;;;;;;;;;;5543725;25;20540;-72
2024/04/08 13:25:17;;;;;;;7.70;3.33;;;;;;;;;;5522182;25;22227;-72
2024/04/08 13:27:46;;;;;;;9.43;3.63;;;;;;;;;;5526284;25;20480;-72
2024/04/08 13:30:12;;;;;;;6.70;3.43;;;;;;;;;;5522170;25;20521;-72
2024/04/08 13:32:41;;;;;;;7.67;3.77;;;;;;;;;;5523588;25;20806;-72
2024/04/08 13:35:07;;;;;;;6.67;4.00;;;;;;;;;;5530404;25;20521;-71
2024/04/08 13:37:36;;;;;;;5.10;2.90;;;;;;;;;;5528258;25;20596;-72
2024/04/08 13:40:05;;;;;;;5.40;2.73;;;;;;;;;;5510447;25;20523;-71
2024/04/08 13:42:36;;;;;;;7.47;3.47;;;;;;;;;;5544898;25;21323;-72
2024/04/08 13:45:02;;;;;;;11.33;3.50;;;;;;;;;;5535531;25;20503;-72
2024/04/08 13:47:31;;;;;;;11.27;3.70;;;;;;;;;;5521387;25;20496;-72
2024/04/08 13:49:57;;;;;;;13.27;3.47;;;;;;;;;;5522736;26;20464;-71
2024/04/08 13:52:26;;;;;;;8.03;3.30;;;;;;;;;;5523038;25;20560;-72
2024/04/08 13:54:52;;;;;;;6.00;3.83;;;;;;;;;;5523048;26;20881;-72
2024/04/08 13:57:21;;;;;;;6.13;3.07;;;;;;;;;;5536468;25;20475;-73
2024/04/08 13:59:50;;;;;;;6.37;3.20;;;;;;;;;;5532754;25;20468;-74
2024/04/08 14:02:19;;;;;;;8.67;3.20;;;;;;;;;;5507868;26;20472;-72
2024/04/08 14:04:45;;;;;;;10.73;3.30;;;;;;;;;;5527699;25;20863;-72
2024/04/08 14:07:14;;;;;;;12.00;4.17;;;;;;;;;;5513227;25;20472;-73
2024/04/08 14:09:40;;;;;;;11.07;3.27;;;;;;;;;;5513565;26;20581;-72
2024/04/08 14:12:09;;;;;;;11.07;3.53;;;;;;;;;;5519801;26;20555;-72
2024/04/08 14:14:35;;;;;;;8.37;3.77;;;;;;;;;;5521326;25;20478;-73
2024/04/08 14:17:07;;;;;;;5.10;3.53;;;;;;;;;;5522093;25;20895;-72
2024/04/08 14:19:33;;;;;;;11.10;3.47;;;;;;;;;;5522674;25;20479;-72
2024/04/08 14:22:02;;;;;;;6.37;3.83;;;;;;;;;;5522412;25;20520;-73
2024/04/08 14:24:28;;;;;;;6.30;3.80;;;;;;;;;;5522657;25;20471;-73
2024/04/08 14:26:57;;;;;;;7.57;3.23;;;;;;;;;;5508605;25;20839;-72
2024/04/08 14:29:23;;;;;;;5.60;2.53;;;;;;;;;;5513180;25;20827;-72
2024/04/08 14:31:52;;;;;;;6.27;3.80;;;;;;;;;;5527792;25;20486;-73
2024/04/08 14:34:21;;;;;;;8.27;2.90;;;;;;;;;;5536114;25;20468;-73
2024/04/08 14:36:50;;;;;;;7.90;3.60;;;;;;;;;;5519105;25;20567;-73
2024/04/08 14:39:16;;;;;;;10.77;4.00;;;;;;;;;;5506818;25;20473;-73
2024/04/08 14:41:45;;;;;;;4.77;2.73;;;;;;;;;;5501056;26;20565;-73
2024/04/08 14:44:11;;;;;;;6.63;3.40;;;;;;;;;;5519585;25;20518;-72
2024/04/08 14:46:40;;;;;;;7.17;2.40;;;;;;;;;;5515707;26;20491;-72